Time;durP1;ratioP1;P1;durP2;ratioP2;P2;SDS_P1;SDS_P2;PMS_P1;PMS_P2;Temp;Humidity;BMP_temperature;BMP_pressure;BME280_temperature;BME280_humidity;BME280_pressure;Samples;Min_cycle;Max_cycle;Signal;HPM_P1;HPM_P2
2023/08/18 00:00:14;;;;;;;4.68;1.42;;;;;;;;;;5009731;28;21454;-63
2023/08/18 00:02:41;;;;;;;2.80;1.15;;;;;;;;;;5007904;28;20163;-63
2023/08/18 00:05:07;;;;;;;2.90;1.08;;;;;;;;;;5009848;28;20047;-63
2023/08/18 00:07:34;;;;;;;4.03;1.10;;;;;;;;;;5009678;28;20037;-63
2023/08/18 00:10:02;;;;;;;3.80;1.50;;;;;;;;;;4990983;28;20064;-63
2023/08/18 00:12:28;;;;;;;4.18;1.30;;;;;;;;;;5009156;28;21707;-63
2023/08/18 00:14:54;;;;;;;3.45;1.00;;;;;;;;;;4991166;28;20029;-63
2023/08/18 00:17:20;;;;;;;3.70;1.55;;;;;;;;;;5010546;28;20104;-64
2023/08/18 00:19:47;;;;;;;2.92;0.98;;;;;;;;;;5011932;28;20041;-63
2023/08/18 00:22:13;;;;;;;5.65;1.30;;;;;;;;;;4994952;28;20036;-63
2023/08/18 00:24:39;;;;;;;2.25;1.20;;;;;;;;;;5011361;28;20045;-63
2023/08/18 00:27:05;;;;;;;2.30;1.10;;;;;;;;;;5012791;28;20218;-63
2023/08/18 00:29:32;;;;;;;5.28;1.70;;;;;;;;;;5011742;28;20044;-63
2023/08/18 00:31:59;;;;;;;2.25;1.30;;;;;;;;;;5012100;28;20033;-63
2023/08/18 00:34:25;;;;;;;3.53;1.35;;;;;;;;;;5012562;28;20529;-63
2023/08/18 00:36:51;;;;;;;3.20;1.20;;;;;;;;;;5012811;28;20527;-64
2023/08/18 00:39:17;;;;;;;2.05;1.00;;;;;;;;;;5012363;28;20511;-64
2023/08/18 00:41:43;;;;;;;4.68;1.30;;;;;;;;;;5011710;28;20041;-63
2023/08/18 00:44:09;;;;;;;3.17;1.20;;;;;;;;;;5012826;28;20048;-63
2023/08/18 00:46:35;;;;;;;4.53;1.60;;;;;;;;;;5011123;28;20999;-64
2023/08/18 00:49:03;;;;;;;2.03;1.23;;;;;;;;;;5013405;28;20060;-63
2023/08/18 00:51:31;;;;;;;5.45;1.48;;;;;;;;;;5011464;28;20083;-64
2023/08/18 00:53:57;;;;;;;2.65;1.08;;;;;;;;;;5012253;28;20384;-63
2023/08/18 00:56:23;;;;;;;4.68;1.67;;;;;;;;;;5011806;28;20475;-63
2023/08/18 00:58:49;;;;;;;4.07;1.75;;;;;;;;;;5013132;28;20034;-63
2023/08/18 01:01:15;;;;;;;5.18;1.77;;;;;;;;;;5010645;28;20029;-63
2023/08/18 01:03:44;;;;;;;3.75;1.60;;;;;;;;;;4992156;28;20044;-63
2023/08/18 01:06:10;;;;;;;4.82;1.73;;;;;;;;;;5011088;28;20037;-63
2023/08/18 01:08:36;;;;;;;2.60;1.33;;;;;;;;;;4997594;28;20663;-63
2023/08/18 01:11:06;;;;;;;3.33;1.52;;;;;;;;;;5012300;28;20041;-63
2023/08/18 01:13:53;;;;;;;3.60;1.27;;;;;;;;;;5011551;28;20033;-63
2023/08/18 01:16:22;;;;;;;2.75;1.15;;;;;;;;;;5011168;28;20037;-63
2023/08/18 01:18:49;;;;;;;4.00;1.40;;;;;;;;;;5008856;28;20055;-64
2023/08/18 01:21:17;;;;;;;2.63;1.55;;;;;;;;;;5010618;28;21839;-63
2023/08/18 01:23:44;;;;;;;4.03;1.52;;;;;;;;;;5007261;28;20055;-64
2023/08/18 01:26:10;;;;;;;3.75;1.38;;;;;;;;;;5011602;28;20037;-63
2023/08/18 01:28:36;;;;;;;4.97;2.15;;;;;;;;;;5009602;28;20041;-64
2023/08/18 01:31:08;;;;;;;2.22;1.20;;;;;;;;;;5010975;28;20417;-63
2023/08/18 01:33:40;;;;;;;6.03;1.65;;;;;;;;;;5010441;28;20040;-63
2023/08/18 01:36:09;;;;;;;4.80;1.33;;;;;;;;;;5011259;28;20025;-63
2023/08/18 01:38:36;;;;;;;8.68;1.92;;;;;;;;;;5011809;28;20632;-63
2023/08/18 01:41:05;;;;;;;5.85;1.90;;;;;;;;;;5012309;28;21448;-63
2023/08/18 01:43:32;;;;;;;5.18;2.20;;;;;;;;;;5026931;28;20444;-63
2023/08/18 01:46:00;;;;;;;3.85;1.67;;;;;;;;;;5011005;28;20057;-63
2023/08/18 01:48:26;;;;;;;5.70;1.98;;;;;;;;;;5011103;28;21817;-63
2023/08/18 01:50:52;;;;;;;5.40;2.45;;;;;;;;;;5011324;28;20669;-64
2023/08/18 01:53:18;;;;;;;4.20;1.83;;;;;;;;;;5011916;28;20559;-63
2023/08/18 01:55:44;;;;;;;4.00;2.00;;;;;;;;;;5011975;28;20902;-64
2023/08/18 01:58:10;;;;;;;4.38;2.15;;;;;;;;;;5011095;28;20492;-63
2023/08/18 02:00:38;;;;;;;4.35;1.98;;;;;;;;;;5011857;28;20447;-63
2023/08/18 02:03:05;;;;;;;3.70;2.08;;;;;;;;;;5011491;28;20033;-63
2023/08/18 02:05:31;;;;;;;4.13;1.90;;;;;;;;;;5013117;28;20029;-63
2023/08/18 02:07:57;;;;;;;4.25;2.08;;;;;;;;;;5010747;28;20052;-63
2023/08/18 02:10:24;;;;;;;5.45;2.33;;;;;;;;;;5011017;28;20047;-63
2023/08/18 02:12:50;;;;;;;4.78;2.47;;;;;;;;;;5010791;28;21342;-63
2023/08/18 02:15:16;;;;;;;5.35;2.25;;;;;;;;;;5011135;28;20087;-63
2023/08/18 02:17:45;;;;;;;5.13;2.70;;;;;;;;;;5011410;28;20037;-63
2023/08/18 02:20:11;;;;;;;3.72;2.33;;;;;;;;;;5008640;28;20142;-64
2023/08/18 02:22:37;;;;;;;5.07;2.00;;;;;;;;;;5010895;28;20051;-63
2023/08/18 02:25:03;;;;;;;5.38;2.35;;;;;;;;;;5010873;28;20874;-63
2023/08/18 02:27:30;;;;;;;5.38;2.50;;;;;;;;;;5011501;28;20068;-63
2023/08/18 02:29:56;;;;;;;3.88;2.50;;;;;;;;;;5009714;28;20036;-63
2023/08/18 02:32:22;;;;;;;4.75;2.33;;;;;;;;;;5010128;28;20053;-63
2023/08/18 02:34:48;;;;;;;5.07;2.40;;;;;;;;;;5011297;28;20025;-63
2023/08/18 02:37:15;;;;;;;6.55;2.45;;;;;;;;;;5008891;28;20067;-63
2023/08/18 02:39:41;;;;;;;6.72;2.83;;;;;;;;;;5011967;28;21516;-63
2023/08/18 02:42:07;;;;;;;3.92;2.20;;;;;;;;;;5009534;28;20032;-63
2023/08/18 02:44:33;;;;;;;4.13;2.35;;;;;;;;;;5012579;28;20095;-63
2023/08/18 02:46:59;;;;;;;5.68;2.80;;;;;;;;;;4993190;28;20165;-63
2023/08/18 02:49:25;;;;;;;5.05;2.70;;;;;;;;;;5010992;28;20206;-64
2023/08/18 02:51:51;;;;;;;5.40;2.45;;;;;;;;;;5010688;28;20040;-63
2023/08/18 02:54:17;;;;;;;5.28;2.75;;;;;;;;;;5010093;28;20037;-63
2023/08/18 02:56:43;;;;;;;6.22;2.75;;;;;;;;;;5011798;28;20056;-63
2023/08/18 02:59:09;;;;;;;6.95;2.83;;;;;;;;;;5010600;28;20029;-63
2023/08/18 03:01:36;;;;;;;6.45;2.80;;;;;;;;;;5009006;28;20029;-63
2023/08/18 03:04:02;;;;;;;5.80;2.83;;;;;;;;;;5009848;28;20706;-63
2023/08/18 03:06:28;;;;;;;5.93;3.03;;;;;;;;;;5009589;28;20045;-64
2023/08/18 03:08:54;;;;;;;6.88;2.83;;;;;;;;;;5009554;28;20040;-63
2023/08/18 03:11:20;;;;;;;7.35;3.10;;;;;;;;;;5009877;28;20789;-64
2023/08/18 03:13:51;;;;;;;7.82;3.05;;;;;;;;;;5010022;28;20041;-63
2023/08/18 03:16:18;;;;;;;6.90;3.33;;;;;;;;;;5009555;28;20099;-63
2023/08/18 03:18:44;;;;;;;8.48;3.42;;;;;;;;;;5010847;28;20025;-64
2023/08/18 03:21:10;;;;;;;8.68;3.20;;;;;;;;;;5029102;28;20123;-63
2023/08/18 03:23:37;;;;;;;6.10;3.15;;;;;;;;;;5026641;28;20037;-63
2023/08/18 03:26:04;;;;;;;5.88;2.85;;;;;;;;;;5027516;28;20063;-63
2023/08/18 03:28:31;;;;;;;8.88;3.45;;;;;;;;;;5027671;28;20475;-63
2023/08/18 03:31:01;;;;;;;8.48;3.10;;;;;;;;;;5027735;28;20028;-63
2023/08/18 03:33:27;;;;;;;8.30;3.10;;;;;;;;;;5027401;28;20023;-63
2023/08/18 03:35:54;;;;;;;6.90;3.58;;;;;;;;;;5026500;28;20033;-64
2023/08/18 03:38:21;;;;;;;6.40;3.58;;;;;;;;;;5030160;28;20038;-63
2023/08/18 03:40:47;;;;;;;8.55;3.90;;;;;;;;;;5029260;28;20033;-63
2023/08/18 03:43:13;;;;;;;7.68;3.22;;;;;;;;;;5028710;28;20036;-64
2023/08/18 03:45:39;;;;;;;7.22;3.40;;;;;;;;;;5030586;28;20120;-64
2023/08/18 03:48:06;;;;;;;6.93;3.17;;;;;;;;;;5030371;28;20733;-63
2023/08/18 03:50:32;;;;;;;5.60;3.33;;;;;;;;;;5029999;28;20488;-63
2023/08/18 03:52:58;;;;;;;6.70;3.33;;;;;;;;;;5028217;28;20170;-63
2023/08/18 03:55:24;;;;;;;5.68;3.28;;;;;;;;;;5029201;28;21743;-64
2023/08/18 03:57:50;;;;;;;7.00;3.58;;;;;;;;;;5028603;28;20047;-63
2023/08/18 04:00:17;;;;;;;9.30;4.13;;;;;;;;;;5028775;28;20052;-63
2023/08/18 04:02:44;;;;;;;6.45;3.60;;;;;;;;;;5028862;28;20697;-63
2023/08/18 04:05:10;;;;;;;7.43;3.80;;;;;;;;;;5029334;28;20491;-63
2023/08/18 04:07:36;;;;;;;6.47;4.00;;;;;;;;;;5029362;28;20086;-63
2023/08/18 04:10:03;;;;;;;6.97;4.20;;;;;;;;;;5028333;28;20024;-63
2023/08/18 04:12:29;;;;;;;10.70;4.43;;;;;;;;;;5028421;28;21852;-64
2023/08/18 04:14:55;;;;;;;7.28;3.45;;;;;;;;;;5029774;28;20647;-63
2023/08/18 04:17:21;;;;;;;6.97;3.35;;;;;;;;;;5029349;28;20025;-63
2023/08/18 04:19:47;;;;;;;7.65;4.10;;;;;;;;;;5019003;28;20146;-63
2023/08/18 04:22:13;;;;;;;9.13;3.95;;;;;;;;;;5009312;28;20037;-64
2023/08/18 04:24:40;;;;;;;6.68;3.80;;;;;;;;;;5006840;28;20038;-63
2023/08/18 04:27:06;;;;;;;7.65;3.75;;;;;;;;;;5009503;28;20123;-63
2023/08/18 04:29:32;;;;;;;7.50;3.97;;;;;;;;;;4989217;28;20548;-63
2023/08/18 04:31:58;;;;;;;7.07;4.00;;;;;;;;;;5008913;28;20104;-63
2023/08/18 04:34:24;;;;;;;9.85;4.18;;;;;;;;;;5008645;28;20028;-64
2023/08/18 04:36:50;;;;;;;8.45;3.90;;;;;;;;;;5009965;28;20048;-63
2023/08/18 04:39:16;;;;;;;8.48;3.40;;;;;;;;;;5008484;28;20039;-64
2023/08/18 04:41:42;;;;;;;8.65;4.03;;;;;;;;;;5009153;28;20044;-63
2023/08/18 04:44:08;;;;;;;6.75;3.50;;;;;;;;;;5008626;28;21880;-64
2023/08/18 04:46:34;;;;;;;6.70;3.63;;;;;;;;;;5008765;28;20044;-63
2023/08/18 04:49:01;;;;;;;8.05;3.83;;;;;;;;;;5008573;28;20514;-63
2023/08/18 04:51:28;;;;;;;9.23;4.05;;;;;;;;;;5007662;28;20742;-63
2023/08/18 04:53:54;;;;;;;9.02;4.05;;;;;;;;;;4991343;28;20127;-63
2023/08/18 04:56:20;;;;;;;6.10;3.08;;;;;;;;;;5006353;28;20060;-63
2023/08/18 04:58:46;;;;;;;7.93;3.40;;;;;;;;;;5006456;28;20644;-63
2023/08/18 05:01:12;;;;;;;6.65;3.63;;;;;;;;;;5006452;28;20064;-63
2023/08/18 05:03:38;;;;;;;6.38;3.08;;;;;;;;;;4990213;28;20064;-63
2023/08/18 05:06:08;;;;;;;8.85;3.63;;;;;;;;;;5008793;28;20049;-63
2023/08/18 05:08:34;;;;;;;6.32;3.58;;;;;;;;;;5010117;28;20021;-63
2023/08/18 05:11:19;;;;;;;6.80;3.25;;;;;;;;;;5009266;28;20028;-63
2023/08/18 05:13:45;;;;;;;8.57;4.13;;;;;;;;;;4993810;28;20033;-63
2023/08/18 05:16:14;;;;;;;7.25;3.22;;;;;;;;;;4989745;28;20053;-63
2023/08/18 05:18:40;;;;;;;7.75;3.90;;;;;;;;;;5009076;28;20049;-64
2023/08/18 05:21:06;;;;;;;6.97;3.40;;;;;;;;;;5008444;28;22528;-63
2023/08/18 05:23:32;;;;;;;8.43;3.28;;;;;;;;;;5009482;28;20033;-63
2023/08/18 05:25:59;;;;;;;8.85;4.05;;;;;;;;;;5009175;28;20099;-63
2023/08/18 05:28:29;;;;;;;6.22;3.60;;;;;;;;;;5009415;28;20029;-63
2023/08/18 05:30:55;;;;;;;7.55;3.58;;;;;;;;;;5012376;28;20033;-63
2023/08/18 05:33:21;;;;;;;6.28;3.03;;;;;;;;;;5008628;28;20077;-63
2023/08/18 05:35:47;;;;;;;8.32;3.30;;;;;;;;;;5007057;28;20898;-63
2023/08/18 05:38:14;;;;;;;8.20;3.60;;;;;;;;;;5007245;28;20048;-63
2023/08/18 05:40:47;;;;;;;9.00;3.20;;;;;;;;;;5008405;28;20057;-63
2023/08/18 05:43:14;;;;;;;11.20;3.63;;;;;;;;;;5010113;28;20147;-63
2023/08/18 05:45:40;;;;;;;8.63;4.15;;;;;;;;;;5009866;28;20021;-63
2023/08/18 05:48:07;;;;;;;8.18;3.90;;;;;;;;;;5008805;28;20108;-63
2023/08/18 05:50:33;;;;;;;7.90;3.50;;;;;;;;;;5007488;28;20585;-63
2023/08/18 05:53:01;;;;;;;8.02;3.45;;;;;;;;;;5009149;28;20033;-64
2023/08/18 05:55:27;;;;;;;9.43;3.97;;;;;;;;;;5005151;28;20033;-63
2023/08/18 05:57:54;;;;;;;9.15;4.13;;;;;;;;;;5008582;28;20036;-63
2023/08/18 06:00:21;;;;;;;10.05;3.72;;;;;;;;;;5008274;28;20506;-63
2023/08/18 06:02:47;;;;;;;8.98;3.75;;;;;;;;;;5006239;28;20091;-63
2023/08/18 06:05:13;;;;;;;7.90;3.92;;;;;;;;;;5007773;28;20037;-63
2023/08/18 06:07:42;;;;;;;11.18;4.10;;;;;;;;;;5008130;28;20116;-63
2023/08/18 06:10:09;;;;;;;8.45;3.53;;;;;;;;;;5008594;28;20157;-64
2023/08/18 06:12:37;;;;;;;7.65;3.58;;;;;;;;;;5008001;28;20496;-63
2023/08/18 06:15:04;;;;;;;7.75;3.65;;;;;;;;;;5007143;28;21088;-63
2023/08/18 06:17:30;;;;;;;8.18;3.75;;;;;;;;;;5007583;28;20400;-63
2023/08/18 06:19:56;;;;;;;10.02;4.05;;;;;;;;;;5007141;28;20507;-63
2023/08/18 06:22:22;;;;;;;7.45;3.58;;;;;;;;;;5006548;28;20029;-63
2023/08/18 06:24:48;;;;;;;10.60;4.03;;;;;;;;;;5008300;28;20044;-63
2023/08/18 06:27:14;;;;;;;6.95;3.40;;;;;;;;;;5008591;28;20025;-63
2023/08/18 06:29:40;;;;;;;15.07;5.13;;;;;;;;;;5008448;28;20040;-63
2023/08/18 06:32:06;;;;;;;9.20;3.53;;;;;;;;;;5006029;28;20041;-63
2023/08/18 06:34:32;;;;;;;9.50;3.65;;;;;;;;;;5007393;28;20095;-63
2023/08/18 06:36:58;;;;;;;6.72;3.55;;;;;;;;;;5007251;28;20041;-63
2023/08/18 06:39:24;;;;;;;7.00;3.47;;;;;;;;;;5007486;28;20124;-63
2023/08/18 06:41:51;;;;;;;12.95;4.28;;;;;;;;;;5008505;28;20674;-63
2023/08/18 06:44:17;;;;;;;6.30;3.28;;;;;;;;;;5007933;28;20040;-63
2023/08/18 06:46:43;;;;;;;8.32;4.00;;;;;;;;;;5006484;28;20246;-63
2023/08/18 06:49:09;;;;;;;9.55;4.07;;;;;;;;;;5007902;28;20038;-63
2023/08/18 06:51:35;;;;;;;7.35;3.65;;;;;;;;;;5008749;28;20037;-63
2023/08/18 06:54:01;;;;;;;13.70;4.28;;;;;;;;;;5008329;28;21330;-63
2023/08/18 06:56:27;;;;;;;11.18;3.70;;;;;;;;;;5007731;28;20773;-63
2023/08/18 06:58:54;;;;;;;9.32;3.75;;;;;;;;;;5007872;28;20037;-63
2023/08/18 07:01:20;;;;;;;8.40;4.18;;;;;;;;;;5007705;28;20061;-63
2023/08/18 07:03:47;;;;;;;9.98;3.85;;;;;;;;;;5006967;28;21147;-63
2023/08/18 07:06:14;;;;;;;8.30;4.40;;;;;;;;;;5007889;28;20129;-63
2023/08/18 07:08:40;;;;;;;7.40;3.85;;;;;;;;;;5007011;28;20025;-63
2023/08/18 07:11:06;;;;;;;7.63;3.78;;;;;;;;;;4998647;28;21403;-63
2023/08/18 07:13:32;;;;;;;8.43;3.92;;;;;;;;;;5006342;28;20021;-63
2023/08/18 07:15:58;;;;;;;7.93;4.07;;;;;;;;;;4999800;28;20042;-63
2023/08/18 07:18:24;;;;;;;11.93;4.45;;;;;;;;;;4999816;28;20576;-63
2023/08/18 07:20:52;;;;;;;7.82;3.95;;;;;;;;;;5001437;28;20049;-63
2023/08/18 07:23:18;;;;;;;11.05;4.55;;;;;;;;;;5016287;28;20169;-63
2023/08/18 07:25:45;;;;;;;7.35;3.83;;;;;;;;;;5015041;28;20044;-63
2023/08/18 07:28:11;;;;;;;8.85;4.53;;;;;;;;;;5000542;28;20029;-63
2023/08/18 07:30:37;;;;;;;7.68;4.22;;;;;;;;;;5001049;28;20045;-63
2023/08/18 07:33:03;;;;;;;9.18;4.68;;;;;;;;;;4998161;28;20140;-63
2023/08/18 07:35:29;;;;;;;9.88;4.40;;;;;;;;;;5002406;28;20033;-63
2023/08/18 07:37:56;;;;;;;10.65;4.32;;;;;;;;;;4997450;28;20096;-63
2023/08/18 07:40:22;;;;;;;8.80;4.38;;;;;;;;;;4995919;28;20033;-63
2023/08/18 07:42:48;;;;;;;8.25;4.53;;;;;;;;;;4996575;28;20033;-63
2023/08/18 07:45:14;;;;;;;10.07;4.20;;;;;;;;;;4999590;28;20032;-63
2023/08/18 07:47:43;;;;;;;9.98;5.10;;;;;;;;;;4999738;28;20045;-63
2023/08/18 07:50:12;;;;;;;13.55;5.75;;;;;;;;;;4999922;28;20041;-62
2023/08/18 07:52:38;;;;;;;12.82;6.68;;;;;;;;;;5000606;28;21182;-62
2023/08/18 07:55:05;;;;;;;10.75;5.60;;;;;;;;;;5000082;28;20108;-63
2023/08/18 07:57:31;;;;;;;11.60;6.22;;;;;;;;;;4999683;28;21957;-63
2023/08/18 07:59:57;;;;;;;11.70;6.57;;;;;;;;;;4999880;28;20069;-63
2023/08/18 08:02:23;;;;;;;10.60;6.57;;;;;;;;;;4998933;28;20117;-63
2023/08/18 08:04:51;;;;;;;14.57;7.38;;;;;;;;;;4999054;28;20035;-63
2023/08/18 08:07:17;;;;;;;13.65;7.10;;;;;;;;;;5000577;28;20107;-63
2023/08/18 08:09:43;;;;;;;9.95;6.95;;;;;;;;;;5000097;28;20512;-63
2023/08/18 08:12:09;;;;;;;15.73;8.00;;;;;;;;;;5000258;28;20557;-63
2023/08/18 08:14:35;;;;;;;15.35;7.88;;;;;;;;;;5000087;28;20580;-63
2023/08/18 08:17:01;;;;;;;13.35;7.72;;;;;;;;;;4998481;28;21918;-63
2023/08/18 08:19:28;;;;;;;13.02;6.90;;;;;;;;;;4998270;28;20045;-63
2023/08/18 08:21:54;;;;;;;14.57;7.10;;;;;;;;;;4999169;28;20041;-63
2023/08/18 08:24:20;;;;;;;12.48;8.02;;;;;;;;;;4999354;28;20048;-63
2023/08/18 08:26:49;;;;;;;15.95;7.43;;;;;;;;;;4998735;28;20159;-63
2023/08/18 08:29:15;;;;;;;19.38;7.45;;;;;;;;;;4998883;28;20040;-63
2023/08/18 08:31:41;;;;;;;33.45;9.43;;;;;;;;;;4999505;28;20120;-63
2023/08/18 08:34:07;;;;;;;20.02;7.13;;;;;;;;;;4999596;28;20030;-68
2023/08/18 08:36:33;;;;;;;15.65;7.25;;;;;;;;;;4997100;28;20522;-68
2023/08/18 08:39:00;;;;;;;16.23;6.45;;;;;;;;;;5000365;28;20090;-69
2023/08/18 08:41:27;;;;;;;12.88;5.85;;;;;;;;;;5004750;28;20259;-68
2023/08/18 08:43:53;;;;;;;12.10;5.88;;;;;;;;;;5004066;28;20100;-68
2023/08/18 08:46:19;;;;;;;14.25;6.22;;;;;;;;;;5004402;28;20045;-68
2023/08/18 08:48:46;;;;;;;13.07;6.00;;;;;;;;;;5003775;28;20068;-68
2023/08/18 08:51:13;;;;;;;13.52;6.38;;;;;;;;;;5007126;28;20063;-68
2023/08/18 08:53:46;;;;;;;15.90;6.28;;;;;;;;;;5008997;28;20039;-68
2023/08/18 08:56:12;;;;;;;;;;;;;;;;;;5011528;28;20030;-68
2023/08/18 08:58:41;;;;;;;17.90;5.93;;;;;;;;;;5010958;28;20007;-68
2023/08/18 09:01:07;;;;;;;13.38;5.88;;;;;;;;;;5009510;28;20050;-68
2023/08/18 09:03:34;;;;;;;14.85;5.90;;;;;;;;;;5009011;28;20036;-68
2023/08/18 09:06:00;;;;;;;12.48;5.75;;;;;;;;;;5008369;28;20036;-68
2023/08/18 09:08:26;;;;;;;16.73;6.70;;;;;;;;;;5009992;28;20585;-68
2023/08/18 09:10:52;;;;;;;17.65;6.78;;;;;;;;;;5010385;28;20532;-68
2023/08/18 09:13:18;;;;;;;10.70;5.57;;;;;;;;;;5010466;28;20052;-68
2023/08/18 09:15:44;;;;;;;13.77;4.97;;;;;;;;;;5009623;28;20088;-68
2023/08/18 09:18:14;;;;;;;15.55;5.50;;;;;;;;;;5010083;28;20382;-68
2023/08/18 09:20:42;;;;;;;16.88;6.38;;;;;;;;;;5008766;28;20041;-68
2023/08/18 09:23:08;;;;;;;12.40;5.95;;;;;;;;;;5030313;28;20032;-68
2023/08/18 09:25:34;;;;;;;15.55;6.13;;;;;;;;;;5029312;28;20036;-68
2023/08/18 09:28:01;;;;;;;11.60;4.93;;;;;;;;;;5029251;28;20354;-68
2023/08/18 09:30:28;;;;;;;9.60;4.63;;;;;;;;;;5029238;28;20036;-68
2023/08/18 09:32:54;;;;;;;10.43;4.97;;;;;;;;;;5028948;28;20033;-68
2023/08/18 09:35:20;;;;;;;14.40;6.00;;;;;;;;;;5029692;28;20040;-68
2023/08/18 09:37:54;;;;;;;9.18;4.38;;;;;;;;;;5028803;28;20039;-68
2023/08/18 09:40:21;;;;;;;13.52;4.90;;;;;;;;;;5029103;28;20025;-69
2023/08/18 09:42:47;;;;;;;11.25;5.68;;;;;;;;;;5028382;28;20039;-68
2023/08/18 09:45:13;;;;;;;12.95;4.97;;;;;;;;;;5027379;28;21061;-68
2023/08/18 09:47:44;;;;;;;14.77;6.03;;;;;;;;;;5027235;28;20048;-69
2023/08/18 09:50:11;;;;;;;14.35;4.50;;;;;;;;;;5027264;28;20090;-68
2023/08/18 09:52:41;;;;;;;9.57;4.47;;;;;;;;;;5027144;28;20108;-68
2023/08/18 09:55:11;;;;;;;8.30;4.78;;;;;;;;;;5026410;28;20025;-63
2023/08/18 09:57:57;;;;;;;10.30;5.22;;;;;;;;;;5027168;28;21959;-63
2023/08/18 10:00:24;;;;;;;9.52;5.00;;;;;;;;;;5029622;28;20033;-63
2023/08/18 10:02:53;;;;;;;10.35;4.90;;;;;;;;;;5028993;28;20245;-63
2023/08/18 10:05:20;;;;;;;8.32;4.18;;;;;;;;;;5028113;28;20937;-63
2023/08/18 10:07:46;;;;;;;10.85;5.20;;;;;;;;;;5028162;28;20029;-63
2023/08/18 10:10:13;;;;;;;10.32;5.68;;;;;;;;;;5028922;28;20028;-63
2023/08/18 10:12:39;;;;;;;11.27;6.13;;;;;;;;;;5028872;28;20064;-63
2023/08/18 10:15:06;;;;;;;12.20;5.57;;;;;;;;;;5028401;28;20029;-63
2023/08/18 10:17:32;;;;;;;11.43;5.03;;;;;;;;;;5030132;28;21769;-63
2023/08/18 10:20:00;;;;;;;9.27;5.47;;;;;;;;;;5018126;28;20049;-63
2023/08/18 10:22:28;;;;;;;9.43;5.35;;;;;;;;;;5008835;28;20112;-63
2023/08/18 10:24:54;;;;;;;9.73;5.35;;;;;;;;;;4992350;28;20130;-63
2023/08/18 10:27:27;;;;;;;10.25;5.60;;;;;;;;;;5009428;28;20975;-63
2023/08/18 10:30:16;;;;;;;11.25;6.15;;;;;;;;;;5007995;28;20770;-63
2023/08/18 10:32:42;;;;;;;11.88;6.63;;;;;;;;;;4999257;28;20049;-63
2023/08/18 10:35:21;;;;;;;16.77;6.95;;;;;;;;;;5008343;28;20044;-63
2023/08/18 10:37:54;;;;;;;11.07;6.82;;;;;;;;;;5008140;28;21295;-63
2023/08/18 10:40:24;;;;;;;11.40;5.95;;;;;;;;;;5008051;28;20029;-63
2023/08/18 10:42:51;;;;;;;9.05;5.93;;;;;;;;;;5007404;28;20458;-63
2023/08/18 10:45:28;;;;;;;10.43;5.93;;;;;;;;;;5007966;28;20104;-63
2023/08/18 10:47:57;;;;;;;9.88;5.85;;;;;;;;;;5008819;28;20029;-63
2023/08/18 10:50:24;;;;;;;8.52;5.53;;;;;;;;;;5007850;28;20030;-63
2023/08/18 10:52:55;;;;;;;8.70;5.22;;;;;;;;;;5008246;28;20106;-63
2023/08/18 10:55:22;;;;;;;8.43;5.50;;;;;;;;;;5007533;28;20017;-63
2023/08/18 10:57:48;;;;;;;11.88;6.50;;;;;;;;;;5007515;28;20160;-63
2023/08/18 11:00:15;;;;;;;9.20;6.45;;;;;;;;;;5007912;28;20162;-63
2023/08/18 11:02:43;;;;;;;9.20;6.75;;;;;;;;;;5006894;28;20043;-63
2023/08/18 11:05:11;;;;;;;10.65;6.15;;;;;;;;;;5007994;28;21784;-63
2023/08/18 11:07:37;;;;;;;12.35;6.57;;;;;;;;;;5007888;28;20399;-63
2023/08/18 11:10:16;;;;;;;10.45;6.70;;;;;;;;;;5007052;28;20839;-63
2023/08/18 11:12:42;;;;;;;9.88;6.07;;;;;;;;;;4990020;28;20377;-63
2023/08/18 11:15:09;;;;;;;12.10;6.10;;;;;;;;;;5007425;28;20024;-63
2023/08/18 11:17:35;;;;;;;9.75;6.32;;;;;;;;;;5007214;28;20120;-63
2023/08/18 11:20:01;;;;;;;9.52;6.80;;;;;;;;;;5007672;28;20752;-63
2023/08/18 11:22:29;;;;;;;11.05;6.97;;;;;;;;;;5007369;28;20040;-63
2023/08/18 11:24:55;;;;;;;11.25;7.22;;;;;;;;;;5006605;28;20025;-63
2023/08/18 11:27:21;;;;;;;11.07;7.50;;;;;;;;;;5007154;28;20034;-62
2023/08/18 11:29:47;;;;;;;11.45;7.00;;;;;;;;;;5007271;28;20190;-62
2023/08/18 11:32:13;;;;;;;9.52;6.72;;;;;;;;;;5007049;28;20402;-63
2023/08/18 11:34:41;;;;;;;11.40;7.15;;;;;;;;;;5007794;28;20037;-63
2023/08/18 11:37:10;;;;;;;10.45;7.22;;;;;;;;;;5007763;28;20029;-63
2023/08/18 11:39:36;;;;;;;8.70;7.22;;;;;;;;;;5007052;28;20048;-63
2023/08/18 11:42:02;;;;;;;10.23;7.45;;;;;;;;;;5007069;28;20045;-63
2023/08/18 11:44:28;;;;;;;12.02;7.38;;;;;;;;;;5007275;28;20068;-63
2023/08/18 11:46:58;;;;;;;14.73;7.75;;;;;;;;;;5006868;28;20029;-63
2023/08/18 11:49:25;;;;;;;12.15;7.43;;;;;;;;;;5003461;28;20071;-63
2023/08/18 11:51:55;;;;;;;9.30;6.75;;;;;;;;;;5004354;28;20098;-63
2023/08/18 11:54:21;;;;;;;10.57;7.18;;;;;;;;;;5005009;28;21058;-63
2023/08/18 11:56:47;;;;;;;11.52;7.95;;;;;;;;;;5005113;28;20748;-63
2023/08/18 11:59:20;;;;;;;9.75;6.90;;;;;;;;;;5005041;28;20377;-63
2023/08/18 12:01:46;;;;;;;10.30;7.20;;;;;;;;;;5001976;28;20050;-63
2023/08/18 12:04:12;;;;;;;9.05;6.38;;;;;;;;;;5002806;28;20037;-63
2023/08/18 12:06:39;;;;;;;9.25;6.47;;;;;;;;;;5005089;28;20040;-63
2023/08/18 12:09:12;;;;;;;9.68;6.60;;;;;;;;;;5006817;28;20033;-63
2023/08/18 12:11:38;;;;;;;9.50;6.88;;;;;;;;;;5005435;28;21808;-63
2023/08/18 12:14:05;;;;;;;10.82;7.40;;;;;;;;;;5012534;28;20124;-63
2023/08/18 12:16:32;;;;;;;10.98;7.28;;;;;;;;;;5013631;28;20088;-63
2023/08/18 12:18:58;;;;;;;10.65;7.22;;;;;;;;;;5014074;28;20063;-63
2023/08/18 12:21:24;;;;;;;11.15;7.15;;;;;;;;;;5013885;28;20099;-63
2023/08/18 12:23:51;;;;;;;9.80;6.55;;;;;;;;;;5013984;28;20051;-63
2023/08/18 12:26:18;;;;;;;9.55;6.13;;;;;;;;;;5011580;28;20044;-63
2023/08/18 12:28:44;;;;;;;10.70;6.75;;;;;;;;;;5011853;28;20108;-63
2023/08/18 12:31:10;;;;;;;9.35;6.45;;;;;;;;;;5012927;28;20025;-63
2023/08/18 12:33:37;;;;;;;11.43;7.25;;;;;;;;;;5012918;28;21211;-63
2023/08/18 12:36:03;;;;;;;10.25;7.22;;;;;;;;;;5013140;28;20038;-63
2023/08/18 12:38:29;;;;;;;10.63;7.50;;;;;;;;;;5027455;28;20031;-63
2023/08/18 12:40:55;;;;;;;9.88;7.15;;;;;;;;;;5012381;28;21454;-63
2023/08/18 12:43:21;;;;;;;8.32;6.57;;;;;;;;;;5004469;28;20813;-63
2023/08/18 12:45:47;;;;;;;9.25;6.72;;;;;;;;;;5003919;28;20169;-63
2023/08/18 12:48:13;;;;;;;8.43;6.88;;;;;;;;;;5005970;28;20037;-63
2023/08/18 12:50:39;;;;;;;10.27;7.32;;;;;;;;;;5006705;28;20043;-63
2023/08/18 12:53:05;;;;;;;9.63;7.25;;;;;;;;;;5007076;28;20032;-63
2023/08/18 12:55:31;;;;;;;9.05;7.00;;;;;;;;;;5005652;28;21905;-63
2023/08/18 12:57:57;;;;;;;10.13;7.60;;;;;;;;;;5005725;28;20899;-63
2023/08/18 13:00:24;;;;;;;10.15;7.63;;;;;;;;;;5006138;28;20033;-63
2023/08/18 13:02:50;;;;;;;9.68;7.43;;;;;;;;;;5006892;28;20029;-63
2023/08/18 13:05:16;;;;;;;9.88;7.43;;;;;;;;;;5006303;28;20043;-63
2023/08/18 13:07:42;;;;;;;11.48;8.38;;;;;;;;;;5005597;28;20122;-69
2023/08/18 13:10:08;;;;;;;10.38;8.30;;;;;;;;;;5006981;28;20162;-69
2023/08/18 13:12:34;;;;;;;10.68;7.88;;;;;;;;;;5005892;28;20099;-69
2023/08/18 13:15:00;;;;;;;11.02;8.32;;;;;;;;;;5006333;28;20506;-69
2023/08/18 13:17:26;;;;;;;11.93;7.53;;;;;;;;;;5006681;28;20037;-69
2023/08/18 13:19:52;;;;;;;11.55;8.00;;;;;;;;;;5005917;28;20569;-69
2023/08/18 13:22:18;;;;;;;10.43;8.43;;;;;;;;;;5006259;28;21115;-69
2023/08/18 13:24:44;;;;;;;11.25;8.20;;;;;;;;;;5003965;28;20392;-63
2023/08/18 13:27:10;;;;;;;10.27;8.23;;;;;;;;;;5002962;28;20041;-70
2023/08/18 13:29:36;;;;;;;10.15;7.85;;;;;;;;;;5001067;28;21272;-69
2023/08/18 13:32:03;;;;;;;9.85;7.88;;;;;;;;;;5001541;28;20126;-69
2023/08/18 13:34:29;;;;;;;12.63;9.32;;;;;;;;;;5002937;28;20114;-69
2023/08/18 13:36:55;;;;;;;10.50;8.10;;;;;;;;;;5002413;28;20069;-69
2023/08/18 13:39:21;;;;;;;12.90;8.70;;;;;;;;;;5002875;28;20029;-70
2023/08/18 13:41:47;;;;;;;14.48;7.97;;;;;;;;;;5001423;28;20025;-70
2023/08/18 13:44:16;;;;;;;12.45;8.60;;;;;;;;;;4997028;28;20055;-63
2023/08/18 13:46:43;;;;;;;12.52;8.02;;;;;;;;;;5000772;28;20039;-63
2023/08/18 13:49:10;;;;;;;11.88;8.60;;;;;;;;;;5001137;28;20503;-63
2023/08/18 13:51:37;;;;;;;12.48;8.52;;;;;;;;;;5000953;28;20424;-63
2023/08/18 13:54:03;;;;;;;12.52;8.55;;;;;;;;;;5000822;28;20112;-63
2023/08/18 13:56:29;;;;;;;11.35;8.73;;;;;;;;;;5000462;28;20135;-63
2023/08/18 13:58:55;;;;;;;11.48;8.90;;;;;;;;;;4996043;28;20037;-63
2023/08/18 14:01:21;;;;;;;10.82;8.50;;;;;;;;;;5000822;28;20033;-63
2023/08/18 14:03:47;;;;;;;13.55;9.30;;;;;;;;;;4998740;28;20143;-63
2023/08/18 14:06:13;;;;;;;13.05;9.10;;;;;;;;;;4999163;28;20125;-64
2023/08/18 14:08:40;;;;;;;14.48;9.13;;;;;;;;;;4999911;28;20072;-63
2023/08/18 14:11:07;;;;;;;14.10;10.18;;;;;;;;;;5001050;28;20100;-63
2023/08/18 14:13:35;;;;;;;16.35;10.30;;;;;;;;;;5002047;28;20045;-63
2023/08/18 14:16:02;;;;;;;15.48;10.63;;;;;;;;;;5000859;28;20036;-63
2023/08/18 14:18:28;;;;;;;11.93;9.80;;;;;;;;;;5001532;28;20400;-63
2023/08/18 14:20:54;;;;;;;15.93;9.88;;;;;;;;;;5000230;28;20044;-63
2023/08/18 14:23:21;;;;;;;16.40;10.38;;;;;;;;;;5001919;28;20033;-63
2023/08/18 14:25:47;;;;;;;11.27;8.98;;;;;;;;;;5001174;28;20813;-63
2023/08/18 14:28:13;;;;;;;15.05;10.43;;;;;;;;;;5001839;28;20211;-63
2023/08/18 14:30:39;;;;;;;11.80;9.85;;;;;;;;;;5000636;28;20119;-63
2023/08/18 14:33:05;;;;;;;14.05;9.25;;;;;;;;;;5000474;28;20195;-63
2023/08/18 14:35:32;;;;;;;13.02;9.95;;;;;;;;;;4998012;28;20029;-63